ESPA/LLA METAR and TAF weather

Enter ICAO airport designator
Station Type Date Time Source
ESPA METAR 2022/01/23 11:20 UTC NOAA

ESPA 231120Z 21008KT CAVOK 04/02 Q1009


Station Type Date Time Source
ESPA Decoded METAR 2022/01/23 11:20 UTC NOAA

Lulea / Kallax, Sweden (ESPA) 65-33N 022-08E 34M
Jan 23, 2022 - 06:20 AM EST / 2022.01.23 1120 UTC
Wind: from the SSW (210 degrees) at 9 MPH (8 KT):0
Visibility: greater than 7 mile(s):0
Temperature: 39 F (4 C)
Dew Point: 35 F (2 C)
Relative Humidity: 86%
Pressure (altimeter): 29.80 in. Hg (1009 hPa)
ob: ESPA 231120Z 21008KT CAVOK 04/02 Q1009
cycle: 11

Station Type Date Time Source
ESPA TAF 2019/02/04 06:27 UTC NOAA

TAF TAF ESPA 040820Z 0406/0418 01010KT 2000 SN VV020
TEMPO 0409/0414 1000 +SN DRSN VV009
BECMG 0414/0416 32010KT 5000 -SN VV030
RMK MIL

Example: see airport list